Time;durP1;ratioP1;P1;durP2;ratioP2;P2;SDS_P1;SDS_P2;PMS_P1;PMS_P2;Temp;Humidity;BMP_temperature;BMP_pressure;BME280_temperature;BME280_humidity;BME280_pressure;Samples;Min_cycle;Max_cycle;Signal;HPM_P1;HPM_P2
2023/07/27 00:00:14;;;;;;;;;;;;;;;20.56;46.37;100914.88;4852582;28;124647;-67
2023/07/27 00:02:42;;;;;;;;;;;;;;;20.55;46.37;100914.03;4837427;28;120873;-67
2023/07/27 00:05:09;;;;;;;;;;;;;;;20.56;46.48;100914.88;4852164;28;118739;-67
2023/07/27 00:07:36;;;;;;;;;;;;;;;20.56;46.46;100909.50;4848751;29;124766;-67
2023/07/27 00:10:03;;;;;;;;;;;;;;;20.56;46.42;100910.34;4850041;29;124104;-67
2023/07/27 00:12:30;;;;;;;;;;;;;;;20.56;46.48;100904.94;4852902;28;120626;-67
2023/07/27 00:14:57;;;;;;;;;;;;;;;20.58;46.46;100907.53;4853147;29;118776;-67
2023/07/27 00:17:24;;;;;;;;;;;;;;;20.59;46.60;100910.09;4848157;29;124260;-67
2023/07/27 00:19:51;;;;;;;;;;;;;;;20.59;46.55;100909.25;4843579;29;124247;-67
2023/07/27 00:22:18;;;;;;;;;;;;;;;20.58;46.56;100918.28;4850675;29;119193;-67
2023/07/27 00:24:45;;;;;;;;;;;;;;;20.58;46.60;100912.91;4845485;29;119603;-67
2023/07/27 00:27:12;;;;;;;;;;;;;;;20.55;46.49;100916.72;4849391;29;125188;-67
2023/07/27 00:29:39;;;;;;;;;;;;;;;20.56;46.62;100914.88;4848909;29;124565;-67
2023/07/27 00:32:06;;;;;;;;;;;;;;;20.55;46.67;100913.16;4854477;28;120413;-67
2023/07/27 00:34:33;;;;;;;;;;;;;;;20.54;46.73;100922.22;4853515;29;118872;-67
2023/07/27 00:37:00;;;;;;;;;;;;;;;20.52;46.67;100918.81;4852624;28;124533;-67
2023/07/27 00:39:28;;;;;;;;;;;;;;;20.49;46.62;100919.91;4854119;29;123264;-68
2023/07/27 00:41:55;;;;;;;;;;;;;;;20.44;46.71;100922.16;4855329;28;119072;-67
2023/07/27 00:44:22;;;;;;;;;;;;;;;20.40;46.67;100910.81;4854121;28;117882;-67
2023/07/27 00:46:51;;;;;;;;;;;;;;;20.37;46.80;100916.44;4854274;29;124066;-68
2023/07/27 00:49:18;;;;;;;;;;;;;;;20.34;46.86;100911.34;4851444;28;123059;-67
2023/07/27 00:51:46;;;;;;;;;;;;;;;20.31;46.78;100905.38;4845117;28;120608;-68
2023/07/27 00:54:13;;;;;;;;;;;;;;;20.28;46.88;100898.41;4854600;29;118782;-68
2023/07/27 00:56:41;;;;;;;;;;;;;;;20.27;46.83;100894.03;4851733;28;123368;-68
2023/07/27 00:59:08;;;;;;;;;;;;;;;20.26;46.98;100886.91;4844500;29;124950;-68
2023/07/27 01:01:35;;;;;;;;;;;;;;;20.26;46.97;100892.31;4852366;29;119751;-68
2023/07/27 01:04:03;;;;;;;;;;;;;;;20.25;47.05;100885.22;4862667;28;118348;-68
2023/07/27 01:06:31;;;;;;;;;;;;;;;20.24;47.06;100883.50;4854395;28;123937;-67
2023/07/27 01:08:58;;;;;;;;;;;;;;;20.22;46.95;100880.94;4850540;29;124933;-68
2023/07/27 01:11:34;;;;;;;;;;;;;;;20.21;47.08;100870.31;4854104;28;119966;-67
2023/07/27 01:14:09;;;;;;;;;;;;;;;20.19;46.94;100869.59;4846491;29;119211;-67
2023/07/27 01:16:57;;;;;;;;;;;;;;;20.16;47.06;100870.72;4853554;28;124416;-67
2023/07/27 01:19:43;;;;;;;;;;;;;;;20.15;47.14;100862.78;4850962;29;122990;-66
2023/07/27 01:22:29;;;;;;;;;;;;;;;20.13;47.18;100864.75;4848515;29;119755;-67
2023/07/27 01:25:02;;;;;;;;;;;;;;;20.12;47.25;100852.31;4842996;29;119033;-67
2023/07/27 01:27:29;;;;;;;;;;;;;;;20.13;47.24;100859.38;4853901;28;123281;-67
2023/07/27 01:30:00;;;;;;;;;;;;;;;20.13;47.34;100856.69;4853490;29;123885;-68
2023/07/27 01:32:29;;;;;;;;;;;;;;;20.13;47.26;100854.00;4852977;29;120711;-68
2023/07/27 01:34:58;;;;;;;;;;;;;;;20.11;47.22;100851.44;4854500;28;118718;-68
2023/07/27 01:37:28;;;;;;;;;;;;;;;20.11;47.39;100854.13;4853424;28;124629;-67
2023/07/27 01:39:56;;;;;;;;;;;;;;;20.10;47.35;100851.56;4851962;28;124678;-67
2023/07/27 01:42:24;;;;;;;;;;;;;;;20.08;47.42;100842.78;4843021;28;120486;-68
2023/07/27 01:44:55;;;;;;;;;;;;;;;20.07;47.39;100838.38;4849338;28;120299;-68
2023/07/27 01:47:23;;;;;;;;;;;;;;;20.06;47.53;100831.28;4853494;28;123639;-68
2023/07/27 01:49:51;;;;;;;;;;;;;;;20.05;47.46;100824.22;4847462;28;124029;-68
2023/07/27 01:52:19;;;;;;;;;;;;;;;20.02;47.53;100819.94;4850064;29;119596;-68
2023/07/27 01:54:47;;;;;;;;;;;;;;;20.00;47.55;100817.41;4850719;28;119144;-68
2023/07/27 01:57:15;;;;;;;;;;;;;;;19.97;47.49;100812.28;4848158;29;124950;-68
2023/07/27 01:59:43;;;;;;;;;;;;;;;19.97;47.50;100809.59;4841583;28;121606;-68
2023/07/27 02:02:12;;;;;;;;;;;;;;;19.95;47.65;100814.25;4852991;29;119686;-68
2023/07/27 02:04:39;;;;;;;;;;;;;;;19.93;47.64;100809.97;4838287;29;117864;-68
2023/07/27 02:07:06;;;;;;;;;;;;;;;19.90;47.63;100800.34;4852418;29;125522;-68
2023/07/27 02:09:33;;;;;;;;;;;;;;;19.89;47.61;100795.97;4849928;29;124191;-68
2023/07/27 02:12:05;;;;;;;;;;;;;;;19.88;47.71;100791.56;4854165;28;119583;-68
2023/07/27 02:14:42;;;;;;;;;;;;;;;19.86;47.77;100788.16;4845444;28;119331;-68
2023/07/27 02:17:16;;;;;;;;;;;;;;;19.84;47.78;100784.75;4848341;28;124763;-68
2023/07/27 02:19:44;;;;;;;;;;;;;;;19.80;47.72;100783.31;4834393;29;123102;-68
2023/07/27 02:22:12;;;;;;;;;;;;;;;19.73;47.84;100776.75;4847964;29;119675;-68
2023/07/27 02:24:39;;;;;;;;;;;;;;;19.70;47.75;100782.34;4852838;29;118950;-68
2023/07/27 02:27:07;;;;;;;;;;;;;;;19.65;47.95;100780.91;4851559;28;123738;-68
2023/07/27 02:29:34;;;;;;;;;;;;;;;19.62;47.85;100765.03;4850747;29;124105;-68
2023/07/27 02:32:01;;;;;;;;;;;;;;;19.60;47.88;100772.38;4852058;29;119465;-68
2023/07/27 02:34:28;;;;;;;;;;;;;;;19.56;47.91;100760.19;4852920;29;118821;-69
2023/07/27 02:36:55;;;;;;;;;;;;;;;19.52;47.94;100756.06;4850612;28;124230;-68
2023/07/27 02:39:22;;;;;;;;;;;;;;;19.49;48.09;100752.75;4850790;28;123919;-69
2023/07/27 02:41:49;;;;;;;;;;;;;;;19.46;48.12;100753.88;4853308;28;119899;-68
2023/07/27 02:44:19;;;;;;;;;;;;;;;19.45;48.19;100746.78;4852813;29;118380;-68
2023/07/27 02:46:47;;;;;;;;;;;;;;;19.40;48.24;100743.63;4849830;29;123583;-69
2023/07/27 02:49:14;;;;;;;;;;;;;;;19.36;48.21;100744.88;4844920;28;123092;-69
2023/07/27 02:51:43;;;;;;;;;;;;;;;19.32;48.27;100744.28;4850581;28;119171;-69
2023/07/27 02:54:10;;;;;;;;;;;;;;;19.30;48.23;100742.72;4852635;28;119030;-69
2023/07/27 02:56:37;;;;;;;;;;;;;;;19.29;48.47;100736.50;4849966;28;125196;-69
2023/07/27 02:59:04;;;;;;;;;;;;;;;19.28;48.36;100728.56;4852909;28;123222;-68
2023/07/27 03:01:37;;;;;;;;;;;;;;;19.26;48.59;100721.47;4849683;28;118593;-69
2023/07/27 03:04:08;;;;;;;;;;;;;;;19.24;48.59;100718.06;4853350;28;117903;-69
2023/07/27 03:06:35;;;;;;;;;;;;;;;19.23;48.31;100716.38;4844538;29;124619;-69
2023/07/27 03:09:05;;;;;;;;;;;;;;;19.23;48.53;100718.19;4833925;28;123508;-69
2023/07/27 03:11:32;;;;;;;;;;;;;;;19.19;48.69;100708.69;4841462;29;119074;-69
2023/07/27 03:13:59;;;;;;;;;;;;;;;19.15;48.60;100708.09;4847758;29;118697;-69
2023/07/27 03:16:26;;;;;;;;;;;;;;;19.12;48.73;100700.31;4843076;28;124499;-68
2023/07/27 03:18:53;;;;;;;;;;;;;;;19.09;48.80;100692.50;4850941;28;123261;-69
2023/07/27 03:21:20;;;;;;;;;;;;;;;19.08;48.94;100693.50;4851669;28;119994;-69
2023/07/27 03:23:47;;;;;;;;;;;;;;;19.09;48.95;100692.50;4852545;29;118836;-68
2023/07/27 03:26:15;;;;;;;;;;;;;;;19.07;49.08;100683.75;4852663;28;123198;-68
2023/07/27 03:28:42;;;;;;;;;;;;;;;19.06;49.03;100682.00;4850846;29;124261;-68
2023/07/27 03:31:14;;;;;;;;;;;;;;;19.05;49.09;100680.34;4844832;28;118722;-68
2023/07/27 03:33:41;;;;;;;;;;;;;;;19.04;49.10;100678.63;4850007;29;118855;-69
2023/07/27 03:36:08;;;;;;;;;;;;;;;19.02;48.98;100669.84;4846491;29;124488;-69
2023/07/27 03:38:35;;;;;;;;;;;;;;;18.99;49.09;100651.31;4848381;29;125714;-68
2023/07/27 03:41:02;;;;;;;;;;;;;;;18.96;49.11;100655.09;4847480;28;118435;-69
2023/07/27 03:43:30;;;;;;;;;;;;;;;18.93;49.17;100649.13;4843003;28;117963;-69
2023/07/27 03:45:56;;;;;;;;;;;;;;;18.91;49.17;100651.09;4853438;28;123353;-69
2023/07/27 03:48:25;;;;;;;;;;;;;;;18.90;49.46;100634.16;4852594;29;123287;-70
2023/07/27 03:50:53;;;;;;;;;;;;;;;18.89;49.41;100620.84;4847836;29;120014;-70
2023/07/27 03:53:20;;;;;;;;;;;;;;;18.84;49.28;100614.03;4845389;28;118990;-70
2023/07/27 03:55:47;;;;;;;;;;;;;;;18.80;49.36;100617.97;4852331;29;124094;-70
2023/07/27 03:58:14;;;;;;;;;;;;;;;18.79;49.72;100594.75;4846767;29;125162;-70
2023/07/27 04:00:41;;;;;;;;;;;;;;;18.78;49.53;100601.13;4848387;29;118057;-70
2023/07/27 04:03:08;;;;;;;;;;;;;;;18.78;49.64;100601.13;4842825;28;118415;-70
2023/07/27 04:05:35;;;;;;;;;;;;;;;18.78;49.66;100598.44;4850871;29;124828;-71
2023/07/27 04:08:03;;;;;;;;;;;;;;;18.77;49.62;100588.66;4850122;29;123116;-70
2023/07/27 04:10:30;;;;;;;;;;;;;;;18.80;49.83;100580.41;4850096;28;119687;-70
2023/07/27 04:12:58;;;;;;;;;;;;;;;18.79;49.80;100578.66;4855845;28;119687;-70
2023/07/27 04:15:25;;;;;;;;;;;;;;;18.78;49.87;100576.97;4848704;28;124555;-70
2023/07/27 04:17:52;;;;;;;;;;;;;;;18.79;49.91;100577.81;4847879;28;124038;-71
2023/07/27 04:20:20;;;;;;;;;;;;;;;18.80;50.00;100568.78;4854305;28;118842;-71
2023/07/27 04:22:47;;;;;;;;;;;;;;;18.80;49.97;100575.03;4846375;28;119056;-71
2023/07/27 04:25:14;;;;;;;;;;;;;;;18.81;49.89;100571.34;4847873;29;124819;-72
2023/07/27 04:27:41;;;;;;;;;;;;;;;18.81;49.82;100570.50;4849896;29;125352;-71
2023/07/27 04:30:08;;;;;;;;;;;;;;;18.81;50.00;100560.63;4846438;28;118432;-71
2023/07/27 04:32:35;;;;;;;;;;;;;;;18.82;49.93;100556.97;4849578;29;118069;-71
2023/07/27 04:35:02;;;;;;;;;;;;;;;18.83;50.21;100553.28;4853545;28;124370;-71
2023/07/27 04:37:29;;;;;;;;;;;;;;;18.85;49.97;100548.69;4845450;28;125190;-71
2023/07/27 04:39:56;;;;;;;;;;;;;;;18.83;50.09;100542.56;4850954;29;119657;-71
2023/07/27 04:42:23;;;;;;;;;;;;;;;18.84;50.01;100544.28;4844120;29;119810;-71
2023/07/27 04:44:50;;;;;;;;;;;;;;;18.83;50.24;100537.19;4853286;29;123279;-72
2023/07/27 04:47:18;;;;;;;;;;;;;;;18.83;50.25;100531.81;4846785;29;123064;-72
2023/07/27 04:49:45;;;;;;;;;;;;;;;18.86;50.08;100528.91;4855580;28;121449;-72
2023/07/27 04:52:12;;;;;;;;;;;;;;;18.86;50.25;100520.84;4853428;29;119158;-72
2023/07/27 04:54:39;;;;;;;;;;;;;;;18.84;50.26;100522.81;4848542;28;124018;-71
2023/07/27 04:57:06;;;;;;;;;;;;;;;18.82;50.23;100519.41;4854243;29;124241;-72
2023/07/27 04:59:34;;;;;;;;;;;;;;;18.83;50.36;100515.72;4847358;28;120454;-72
2023/07/27 05:02:01;;;;;;;;;;;;;;;18.82;50.30;100516.72;4851683;28;118979;-72
2023/07/27 05:04:29;;;;;;;;;;;;;;;18.84;50.47;100506.72;4849084;29;124086;-72
2023/07/27 05:06:56;;;;;;;;;;;;;;;18.85;50.35;100497.69;4849860;29;124503;-72
2023/07/27 05:09:23;;;;;;;;;;;;;;;18.86;50.38;100494.00;4844280;29;119700;-72
2023/07/27 05:11:50;;;;;;;;;;;;;;;18.91;50.30;100495.44;4850237;29;118582;-72
2023/07/27 05:14:17;;;;;;;;;;;;;;;18.93;50.35;100488.09;4849187;29;124237;-72
2023/07/27 05:16:44;;;;;;;;;;;;;;;18.96;50.39;100493.22;4846150;29;124020;-72
2023/07/27 05:19:11;;;;;;;;;;;;;;;18.97;50.47;100478.84;4857978;28;119266;-72
2023/07/27 05:21:39;;;;;;;;;;;;;;;18.98;50.41;100480.53;4855707;28;118715;-73
2023/07/27 05:24:06;;;;;;;;;;;;;;;19.00;50.24;100473.19;4849261;28;123904;-72
2023/07/27 05:26:34;;;;;;;;;;;;;;;19.01;50.39;100481.09;4852737;29;123389;-72
2023/07/27 05:29:01;;;;;;;;;;;;;;;19.03;50.48;100478.28;4847295;28;119238;-73
2023/07/27 05:31:28;;;;;;;;;;;;;;;19.05;50.66;100466.44;4845553;29;118598;-73
2023/07/27 05:33:55;;;;;;;;;;;;;;;19.09;50.60;100472.38;4853536;28;124857;-73
2023/07/27 05:36:22;;;;;;;;;;;;;;;19.11;50.45;100459.69;4851574;29;123911;-73
2023/07/27 05:38:49;;;;;;;;;;;;;;;19.11;50.64;100465.03;4848796;28;119974;-73
2023/07/27 05:41:16;;;;;;;;;;;;;;;19.13;50.64;100455.03;4854326;29;118928;-73
2023/07/27 05:43:43;;;;;;;;;;;;;;;19.14;50.63;100453.22;4845062;28;123217;-73
2023/07/27 05:46:10;;;;;;;;;;;;;;;19.15;50.64;100455.75;4846834;28;123935;-73
2023/07/27 05:48:37;;;;;;;;;;;;;;;19.18;50.58;100451.94;4851246;29;120563;-73
2023/07/27 05:51:04;;;;;;;;;;;;;;;19.18;50.64;100450.09;4851864;28;119731;-73
2023/07/27 05:53:31;;;;;;;;;;;;;;;19.21;50.83;100454.34;4851235;28;124133;-73
2023/07/27 05:55:58;;;;;;;;;;;;;;;19.22;50.76;100448.84;4854954;29;124038;-73
2023/07/27 05:58:25;;;;;;;;;;;;;;;19.23;50.62;100447.88;4850382;29;119428;-73
2023/07/27 06:01:00;;;;;;;;;;;;;;;19.26;50.80;100441.38;4852742;28;118926;-73
2023/07/27 06:03:28;;;;;;;;;;;;;;;19.26;50.64;100444.91;4843306;29;124913;-73
2023/07/27 06:05:56;;;;;;;;;;;;;;;19.30;50.70;100439.28;4851563;29;124291;-73
2023/07/27 06:08:23;;;;;;;;;;;;;;;19.31;50.77;100435.59;4842148;29;120985;-73
2023/07/27 06:10:59;;;;;;;;;;;;;;;19.33;50.67;100436.31;4854219;28;119549;-73
2023/07/27 06:13:26;;;;;;;;;;;;;;;19.35;50.88;100434.34;4853901;29;124218;-74
2023/07/27 06:15:53;;;;;;;;;;;;;;;19.35;50.95;100428.97;4852983;28;124643;-74
2023/07/27 06:18:20;;;;;;;;;;;;;;;19.37;50.75;100427.00;4852032;29;120317;-73
2023/07/27 06:20:47;;;;;;;;;;;;;;;19.40;50.93;100432.97;4853593;28;118721;-74
2023/07/27 06:23:14;;;;;;;;;;;;;;;19.43;50.86;100429.13;4851665;29;124352;-74
2023/07/27 06:25:45;;;;;;;;;;;;;;;19.46;50.91;100423.50;4851940;29;124137;-74
2023/07/27 06:28:12;;;;;;;;;;;;;;;19.50;51.08;100422.25;4847682;29;119406;-74
2023/07/27 06:30:40;;;;;;;;;;;;;;;19.53;50.93;100423.78;4843456;29;118483;-74
2023/07/27 06:33:07;;;;;;;;;;;;;;;19.56;51.01;100421.69;4849768;28;124099;-73
2023/07/27 06:35:34;;;;;;;;;;;;;;;19.61;50.98;100419.44;4849734;29;123954;-74
2023/07/27 06:38:02;;;;;;;;;;;;;;;19.67;51.20;100417.19;4838911;29;120393;-75
2023/07/27 06:40:30;;;;;;;;;;;;;;;19.72;50.98;100422.97;4845018;29;119876;-74
2023/07/27 06:42:57;;;;;;;;;;;;;;;19.75;50.97;100420.06;4852361;28;124442;-73
2023/07/27 06:45:24;;;;;;;;;;;;;;;19.79;51.07;100416.09;4844261;28;122970;-74
2023/07/27 06:47:51;;;;;;;;;;;;;;;19.81;51.00;100419.50;4845352;28;119438;-74
2023/07/27 06:50:19;;;;;;;;;;;;;;;19.84;51.06;100419.22;4845605;29;119666;-74
2023/07/27 06:52:46;;;;;;;;;;;;;;;19.89;51.23;100419.66;4854024;29;124261;-74
2023/07/27 06:55:14;;;;;;;;;;;;;;;19.93;51.19;100423.75;4847836;29;124377;-73
2023/07/27 06:57:42;;;;;;;;;;;;;;;19.97;51.14;100414.44;4852704;29;119365;-74
2023/07/27 07:00:09;;;;;;;;;;;;;;;20.01;51.20;100410.47;4852229;29;117360;-74
2023/07/27 07:02:36;;;;;;;;;;;;;;;20.07;51.07;100402.84;4853182;28;124444;-74
2023/07/27 07:05:04;;;;;;;;;;;;;;;20.10;51.27;100397.16;4847587;29;123103;-74
2023/07/27 07:07:31;;;;;;;;;;;;;;;20.11;51.17;100399.69;4844896;28;120229;-75
2023/07/27 07:09:58;;;;;;;;;;;;;;;20.16;51.16;100401.97;4848718;28;119272;-73
2023/07/27 07:12:26;;;;;;;;;;;;;;;20.20;51.25;100408.78;4852768;28;124361;-73
2023/07/27 07:14:53;;;;;;;;;;;;;;;20.22;51.07;100404.09;4851649;29;124123;-73
2023/07/27 07:17:20;;;;;;;;;;;;;;;20.25;51.24;100406.50;4851392;29;120961;-74
2023/07/27 07:19:47;;;;;;;;;;;;;;;20.26;51.21;100402.81;4849763;28;119007;-74
2023/07/27 07:22:14;;;;;;;;;;;;;;;20.28;51.13;100400.00;4849020;29;124446;-74
2023/07/27 07:24:41;;;;;;;;;;;;;;;20.28;51.29;100406.22;4851385;29;124108;-73
2023/07/27 07:27:08;;;;;;;;;;;;;;;20.30;51.35;100404.22;4848277;28;120817;-74
2023/07/27 07:29:35;;;;;;;;;;;;;;;20.32;51.37;100402.22;4835359;29;118856;-74
2023/07/27 07:32:02;;;;;;;;;;;;;;;20.36;51.25;100390.22;4853689;28;124659;-74
2023/07/27 07:34:33;;;;;;;;;;;;;;;20.38;51.33;100390.94;4851456;29;124783;-73
2023/07/27 07:37:00;;;;;;;;;;;;;;;20.40;51.31;100388.94;4851284;28;119309;-74
2023/07/27 07:39:27;;;;;;;;;;;;;;;20.43;51.38;100396.69;4850245;29;119970;-73
2023/07/27 07:41:56;;;;;;;;;;;;;;;20.46;51.46;100387.50;4853148;28;124449;-74
2023/07/27 07:44:23;;;;;;;;;;;;;;;20.50;51.48;100382.69;4851604;28;124261;-73
2023/07/27 07:46:50;;;;;;;;;;;;;;;20.51;51.45;100387.06;4847951;29;119891;-73
2023/07/27 07:49:18;;;;;;;;;;;;;;;20.55;51.51;100369.63;4843942;29;118841;-74
2023/07/27 07:51:45;;;;;;;;;;;;;;;20.59;51.46;100371.06;4843000;28;123153;-74
2023/07/27 07:54:12;;;;;;;;;;;;;;;20.62;51.63;100370.78;4848559;29;124251;-73
2023/07/27 07:56:39;;;;;;;;;;;;;;;20.66;51.54;100366.81;4845477;28;119557;-74
2023/07/27 07:59:06;;;;;;;;;;;;;;;20.70;51.53;100367.34;4851171;29;119094;-74
2023/07/27 08:01:33;;;;;;;;;;;;;;;20.73;51.58;100367.91;4849783;29;124490;-74
2023/07/27 08:04:00;;;;;;;;;;;;;;;20.75;51.63;100365.91;4851758;28;124195;-74
2023/07/27 08:06:27;;;;;;;;;;;;;;;20.78;51.63;100365.63;4849525;29;119488;-74
2023/07/27 08:08:54;;;;;;;;;;;;;;;20.82;51.67;100374.28;4852825;29;118205;-74
2023/07/27 08:11:21;;;;;;;;;;;;;;;20.85;51.75;100365.03;4843551;29;123909;-74
2023/07/27 08:13:48;;;;;;;;;;;;;;;20.88;51.62;100354.00;4847927;29;122998;-74
2023/07/27 08:16:16;;;;;;;;;;;;;;;20.92;51.64;100355.38;4841163;29;119890;-74
2023/07/27 08:18:44;;;;;;;;;;;;;;;20.94;51.71;100358.78;4851384;28;119649;-74
2023/07/27 08:21:11;;;;;;;;;;;;;;;20.95;51.67;100357.78;4850652;28;124709;-74
2023/07/27 08:23:38;;;;;;;;;;;;;;;20.98;51.69;100360.16;4852164;29;124194;-73
2023/07/27 08:26:08;;;;;;;;;;;;;;;21.02;51.79;100355.34;4853290;29;119491;-74
2023/07/27 08:28:36;;;;;;;;;;;;;;;21.06;51.74;100367.50;4851540;29;118752;-74
2023/07/27 08:31:03;;;;;;;;;;;;;;;21.07;51.88;100359.28;4845856;28;124526;-74
2023/07/27 08:33:31;;;;;;;;;;;;;;;21.12;51.86;100362.38;4850047;29;124091;-73
2023/07/27 08:35:59;;;;;;;;;;;;;;;21.17;52.02;100360.09;4850618;29;120081;-74
2023/07/27 08:38:28;;;;;;;;;;;;;;;21.22;51.99;100356.09;4854828;28;118922;-74
2023/07/27 08:40:56;;;;;;;;;;;;;;;21.28;51.97;100355.50;4850625;29;123885;-74
2023/07/27 08:43:23;;;;;;;;;;;;;;;21.34;51.95;100352.19;4849923;29;124164;-74
2023/07/27 08:45:52;;;;;;;;;;;;;;;21.41;52.10;100339.81;4852083;29;120354;-74
2023/07/27 08:48:20;;;;;;;;;;;;;;;21.48;52.02;100343.63;4842670;28;119765;-74
2023/07/27 08:50:47;;;;;;;;;;;;;;;21.52;52.07;100342.31;4856760;28;124702;-74
2023/07/27 08:53:16;;;;;;;;;;;;;;;21.60;52.13;100344.25;4851663;28;124051;-74
2023/07/27 08:55:44;;;;;;;;;;;;;;;21.67;52.08;100339.09;4845691;28;119905;-74
2023/07/27 08:58:11;;;;;;;;;;;;;;;21.75;52.05;100352.66;4852983;28;118999;-74
2023/07/27 09:00:38;;;;;;;;;;;;;;;21.79;51.99;100332.47;4844833;29;124154;-74
2023/07/27 09:03:07;;;;;;;;;;;;;;;21.82;52.07;100337.56;4851056;29;124438;-73
2023/07/27 09:05:43;;;;;;;;;;;;;;;21.85;51.97;100342.66;4852699;29;120780;-74
2023/07/27 09:08:11;;;;;;;;;;;;;;;21.88;51.97;100339.63;4855946;28;120540;-73
2023/07/27 09:10:39;;;;;;;;;;;;;;;21.92;52.06;100335.63;4846206;28;124148;-73
2023/07/27 09:13:06;;;;;;;;;;;;;;;21.97;52.13;100330.59;4848771;29;124384;-74
2023/07/27 09:15:34;;;;;;;;;;;;;;;22.03;52.13;100333.69;4851392;28;119929;-74
2023/07/27 09:18:08;;;;;;;;;;;;;;;22.07;52.19;100340.47;4845307;29;118772;-73
2023/07/27 09:20:35;;;;;;;;;;;;;;;22.09;52.11;100336.59;4859432;28;124888;-74
2023/07/27 09:23:03;;;;;;;;;;;;;;;22.12;52.21;100338.16;4854422;29;124542;-74
2023/07/27 09:25:30;;;;;;;;;;;;;;;22.14;52.12;100341.53;4844713;29;119596;-74
2023/07/27 09:27:58;;;;;;;;;;;;;;;22.15;52.16;100337.81;4839164;29;118267;-74
2023/07/27 09:30:25;;;;;;;;;;;;;;;22.17;52.17;100335.84;4852697;28;124431;-74
2023/07/27 09:32:52;;;;;;;;;;;;;;;22.18;52.13;100332.13;4849765;29;124890;-74
2023/07/27 09:35:20;;;;;;;;;;;;;;;22.19;52.07;100330.25;4848322;28;119431;-73
2023/07/27 09:37:48;;;;;;;;;;;;;;;22.21;52.19;100336.34;4848279;29;119178;-73
2023/07/27 09:40:17;;;;;;;;;;;;;;;22.22;52.29;100328.09;4853757;29;123096;-73
2023/07/27 09:42:44;;;;;;;;;;;;;;;22.24;52.28;100331.47;4839918;29;123226;-73
2023/07/27 09:45:12;;;;;;;;;;;;;;;22.24;52.22;100328.78;4847753;29;119216;-73
2023/07/27 09:47:40;;;;;;;;;;;;;;;22.24;52.21;100328.78;4851436;29;118916;-74
2023/07/27 09:50:08;;;;;;;;;;;;;;;22.24;52.26;100347.66;4843206;29;124031;-74
2023/07/27 09:52:36;;;;;;;;;;;;;;;22.19;52.21;100333.84;4851818;29;124577;-73
2023/07/27 09:55:04;;;;;;;;;;;;;;;22.16;52.30;100329.56;4840666;29;120657;-73
2023/07/27 09:57:31;;;;;;;;;;;;;;;22.15;52.35;100329.72;4847922;28;119603;-73
2023/07/27 10:00:04;;;;;;;;;;;;;;;22.17;52.35;100330.44;4854028;28;124676;-74
2023/07/27 10:02:39;;;;;;;;;;;;;;;22.19;52.41;100333.84;4847394;29;124898;-74
2023/07/27 10:05:06;;;;;;;;;;;;;;;22.25;52.54;100338.63;4850573;29;119159;-74
2023/07/27 10:07:37;;;;;;;;;;;;;;;22.30;52.57;100319.25;4853854;29;118983;-74
2023/07/27 10:10:26;;;;;;;;;;;;;;;22.34;52.61;100332.28;4852209;28;124311;-74
2023/07/27 10:13:00;;;;;;;;;;;;;;;22.41;52.76;100320.84;4855081;29;124240;-74
2023/07/27 10:15:30;;;;;;;;;;;;;;;22.47;52.74;100326.47;4853442;28;120467;-73
2023/07/27 10:17:58;;;;;;;;;;;;;;;22.53;52.83;100333.06;4845864;29;119214;-73
2023/07/27 10:20:29;;;;;;;;;;;;;;;22.54;52.56;100332.06;4852023;28;124130;-74
2023/07/27 10:23:20;;;;;;;;;;;;;;;22.52;52.45;100328.66;4845957;29;123938;-74
2023/07/27 10:25:53;;;;;;;;;;;;;;;22.51;52.52;100332.41;4842017;28;119690;-75
2023/07/27 10:28:35;;;;;;;;;;;;;;;22.52;52.51;100331.38;4844545;28;119601;-75
2023/07/27 10:31:25;;;;;;;;;;;;;;;22.51;52.60;100335.09;4845363;28;124864;-75
2023/07/27 10:33:56;;;;;;;;;;;;;;;22.51;52.64;100337.78;4840478;29;123679;-75
2023/07/27 10:36:49;;;;;;;;;;;;;;;22.51;52.58;100333.22;4848886;29;119758;-75
2023/07/27 10:39:20;;;;;;;;;;;;;;;22.50;52.63;100334.22;4847499;28;118985;-75
2023/07/27 10:41:57;;;;;;;;;;;;;;;22.49;52.71;100331.69;4854996;28;124731;-75
2023/07/27 10:44:43;;;;;;;;;;;;;;;22.47;52.70;100326.47;4851592;29;123898;-75
2023/07/27 10:47:12;;;;;;;;;;;;;;;22.49;52.86;100328.97;4845060;29;120103;-75
2023/07/27 10:49:43;;;;;;;;;;;;;;;22.53;52.86;100330.38;4845189;28;120602;-74
2023/07/27 10:52:14;;;;;;;;;;;;;;;22.57;52.94;100326.34;4848582;29;124827;-74
2023/07/27 10:54:41;;;;;;;;;;;;;;;22.60;53.00;100331.41;4852021;28;124910;-74
2023/07/27 10:57:09;;;;;;;;;;;;;;;22.65;53.06;100329.09;4846246;29;119451;-74
2023/07/27 10:59:38;;;;;;;;;;;;;;;22.70;52.95;100326.75;4844697;28;119178;-75
2023/07/27 11:02:08;;;;;;;;;;;;;;;22.74;52.96;100327.28;4852569;28;123934;-75
2023/07/27 11:04:36;;;;;;;;;;;;;;;22.76;53.03;100330.66;4850036;28;122995;-74
2023/07/27 11:07:03;;;;;;;;;;;;;;;22.74;52.77;100325.41;4843968;29;119616;-74
2023/07/27 11:09:30;;;;;;;;;;;;;;;22.73;52.96;100331.84;4846172;29;120341;-74
2023/07/27 11:12:03;;;;;;;;;;;;;;;22.69;52.91;100329.59;4850625;29;124420;-73
2023/07/27 11:14:30;;;;;;;;;;;;;;;22.68;52.83;100328.78;4843416;28;124206;-75
2023/07/27 11:16:58;;;;;;;;;;;;;;;22.68;52.95;100331.47;4849353;28;118767;-75
2023/07/27 11:19:26;;;;;;;;;;;;;;;22.69;53.03;100325.06;4849169;28;117716;-74
2023/07/27 11:21:54;;;;;;;;;;;;;;;22.73;53.18;100326.44;4846464;28;124215;-74
2023/07/27 11:24:22;;;;;;;;;;;;;;;22.75;53.20;100312.75;4847012;29;123797;-75
2023/07/27 11:26:49;;;;;;;;;;;;;;;22.79;53.17;100318.69;4845803;29;118754;-74
2023/07/27 11:29:16;;;;;;;;;;;;;;;22.82;53.15;100312.97;4846777;29;117831;-74
2023/07/27 11:31:53;;;;;;;;;;;;;;;22.85;53.19;100312.63;4846321;28;125207;-74
2023/07/27 11:34:24;;;;;;;;;;;;;;;22.88;53.09;100313.16;4855996;28;123959;-75
2023/07/27 11:36:53;;;;;;;;;;;;;;;22.91;53.34;100306.59;4851957;29;120042;-74
2023/07/27 11:39:20;;;;;;;;;;;;;;;22.96;53.11;100308.81;4840452;29;120303;-74
2023/07/27 11:41:49;;;;;;;;;;;;;;;23.03;53.40;100310.72;4845697;29;125869;-73
2023/07/27 11:44:20;;;;;;;;;;;;;;;23.10;53.17;100322.56;4851934;28;124299;-74
2023/07/27 11:46:49;;;;;;;;;;;;;;;23.11;53.30;100308.06;4844108;28;119615;-74
2023/07/27 11:49:17;;;;;;;;;;;;;;;23.13;53.18;100326.78;4852688;29;119010;-74
2023/07/27 11:51:44;;;;;;;;;;;;;;;23.13;53.12;100316.84;4842595;28;125172;-74
2023/07/27 11:54:26;;;;;;;;;;;;;;;23.15;53.24;100313.13;4853315;28;123415;-74
2023/07/27 11:56:54;;;;;;;;;;;;;;;23.13;53.20;100311.44;4851172;28;119718;-75
2023/07/27 11:59:22;;;;;;;;;;;;;;;23.14;53.21;100309.59;4841429;28;117795;-74
2023/07/27 12:01:50;;;;;;;;;;;;;;;23.17;53.38;100308.41;4852064;28;123043;-74
2023/07/27 12:04:18;;;;;;;;;;;;;;;23.19;53.33;100311.78;4860059;28;124131;-74
2023/07/27 12:06:45;;;;;;;;;;;;;;;23.21;53.40;100312.50;4848186;28;119445;-75
2023/07/27 12:09:12;;;;;;;;;;;;;;;23.20;53.23;100316.19;4844285;28;118439;-74
2023/07/27 12:11:39;;;;;;;;;;;;;;;23.21;53.23;100317.88;4841449;29;125132;-74
2023/07/27 12:14:08;;;;;;;;;;;;;;;23.21;53.28;100312.50;4851825;29;124302;-74
2023/07/27 12:16:36;;;;;;;;;;;;;;;23.24;53.32;100322.94;4852777;29;121000;-74
2023/07/27 12:19:07;;;;;;;;;;;;;;;23.26;53.44;100316.38;4853440;28;119022;-75
2023/07/27 12:21:35;;;;;;;;;;;;;;;23.28;53.31;100324.31;4852444;28;124825;-74
2023/07/27 12:24:02;;;;;;;;;;;;;;;23.30;53.42;100333.97;4845600;29;123776;-74
2023/07/27 12:26:32;;;;;;;;;;;;;;;23.31;53.46;100318.59;4848773;28;120465;-74
2023/07/27 12:28:59;;;;;;;;;;;;;;;23.32;53.26;100321.13;4853115;28;120534;-74
2023/07/27 12:31:30;;;;;;;;;;;;;;;23.32;53.41;100314.88;4853339;29;124347;-74
2023/07/27 12:34:00;;;;;;;;;;;;;;;23.30;53.24;100328.56;4851042;28;124227;-74